Time;durP1;ratioP1;P1;durP2;ratioP2;P2;SDS_P1;SDS_P2;PMS_P1;PMS_P2;Temp;Humidity;BMP_temperature;BMP_pressure;BME280_temperature;BME280_humidity;BME280_pressure;Samples;Min_cycle;Max_cycle;Signal;HPM_P1;HPM_P2
2021/07/29 00:02:24;;;;;;;18.27;7.57;;;;;;;25.99;56.01;101110.59;5110813;28;20249;-61
2021/07/29 00:04:50;;;;;;;17.90;6.57;;;;;;;25.89;55.86;101106.50;5110921;28;20178;-60
2021/07/29 00:07:16;;;;;;;19.27;7.00;;;;;;;25.93;55.71;101113.47;5109978;28;20175;-60
2021/07/29 00:10:00;;;;;;;14.53;7.10;;;;;;;25.96;54.76;101117.31;5110679;28;20170;-60
2021/07/29 00:12:25;;;;;;;16.70;6.50;;;;;;;26.07;53.92;101123.69;5110858;28;20174;-60
2021/07/29 00:14:51;;;;;;;15.07;6.67;;;;;;;26.16;54.10;101125.44;5110561;28;20174;-60
2021/07/29 00:20:01;;;;;;;19.47;7.17;;;;;;;26.25;53.38;101122.28;5111023;28;20251;-59
2021/07/29 00:22:26;;;;;;;14.90;7.00;;;;;;;26.24;54.06;101120.72;5110541;28;20277;-60
2021/07/29 00:24:52;;;;;;;17.50;6.93;;;;;;;26.19;54.73;101118.69;5110541;28;20170;-61
2021/07/29 00:27:17;;;;;;;12.97;6.90;;;;;;;26.21;55.08;101108.34;5109749;28;20183;-61
2021/07/29 00:29:43;;;;;;;16.03;6.70;;;;;;;26.13;53.13;101110.22;5110592;28;20186;-60
2021/07/29 00:32:08;;;;;;;20.80;6.70;;;;;;;26.09;54.27;101104.06;5110713;28;20169;-60
2021/07/29 00:34:34;;;;;;;18.40;6.37;;;;;;;26.00;55.26;101103.63;5110497;28;20180;-60
2021/07/29 00:36:59;;;;;;;15.10;6.70;;;;;;;25.99;55.11;101099.25;5109961;28;20691;-60
2021/07/29 00:39:25;;;;;;;14.93;6.93;;;;;;;26.07;55.12;101098.13;5114240;28;20281;-60
2021/07/29 00:41:50;;;;;;;14.90;6.57;;;;;;;26.11;55.35;101092.16;5113812;28;20222;-60
2021/07/29 00:44:15;;;;;;;17.30;7.30;;;;;;;26.14;55.04;101108.91;5114377;28;20162;-60
2021/07/29 00:46:41;;;;;;;17.27;6.30;;;;;;;26.14;54.40;101096.78;5113327;28;20588;-60
2021/07/29 00:49:08;;;;;;;18.83;6.97;;;;;;;25.82;54.32;101041.75;5114175;28;20253;-60
2021/07/29 00:51:35;;;;;;;13.63;6.23;;;;;;;25.93;54.87;101095.66;5113912;28;20175;-60
2021/07/29 00:54:02;;;;;;;17.50;6.63;;;;;;;25.81;53.99;101092.09;5113960;28;20299;-60
2021/07/29 00:56:28;;;;;;;19.47;6.23;;;;;;;25.89;54.66;101092.31;5113193;28;20687;-60
2021/07/29 00:58:54;;;;;;;16.47;6.60;;;;;;;25.94;54.63;101094.38;5113628;28;20676;-60
2021/07/29 01:01:19;;;;;;;18.20;6.87;;;;;;;25.92;55.99;101096.94;5114060;28;20178;-60
2021/07/29 01:03:45;;;;;;;22.90;8.30;;;;;;;25.95;56.32;101098.75;5113599;28;20202;-61
2021/07/29 01:06:10;;;;;;;21.43;7.03;;;;;;;25.95;55.99;101093.81;5112925;28;20174;-61
2021/07/29 01:08:58;;;;;;;16.93;6.77;;;;;;;25.97;55.81;101093.31;5113725;28;20205;-60
2021/07/29 01:11:24;;;;;;;13.97;7.07;;;;;;;26.01;55.66;101074.69;5113669;28;20166;-60
2021/07/29 01:13:49;;;;;;;21.47;7.10;;;;;;;26.05;56.12;101085.75;5113618;28;20241;-60
2021/07/29 01:16:15;;;;;;;17.87;6.57;;;;;;;26.05;56.54;101082.94;5112776;28;20189;-60
2021/07/29 01:18:40;;;;;;;19.20;7.63;;;;;;;26.01;54.00;101080.38;5113707;28;20675;-60
2021/07/29 01:21:06;;;;;;;21.60;8.27;;;;;;;25.84;51.99;101082.53;5113242;28;20660;-61
2021/07/29 01:23:31;;;;;;;19.73;7.87;;;;;;;24.65;53.29;100898.34;5113543;28;20550;-61
2021/07/29 01:25:57;;;;;;;13.73;7.23;;;;;;;25.79;52.46;101082.56;5112409;28;20178;-60
2021/07/29 01:28:23;;;;;;;21.13;8.40;;;;;;;25.78;52.55;101087.47;5113458;28;20209;-60
2021/07/29 01:30:49;;;;;;;12.90;7.63;;;;;;;25.80;52.74;101081.28;5113223;28;20227;-60
2021/07/29 01:33:14;;;;;;;13.87;7.60;;;;;;;25.71;52.93;101084.44;5113367;28;20652;-59
2021/07/29 01:35:40;;;;;;;17.17;7.47;;;;;;;25.68;53.06;101071.28;5113107;28;20170;-60
2021/07/29 01:38:05;;;;;;;23.77;7.40;;;;;;;25.52;52.74;101075.00;5112293;28;20177;-60
2021/07/29 01:40:31;;;;;;;16.53;7.67;;;;;;;25.57;52.31;101085.53;5113208;28;20170;-60
2021/07/29 01:42:56;;;;;;;20.27;8.70;;;;;;;25.55;51.00;101077.56;5112757;28;20249;-60
2021/07/29 01:45:22;;;;;;;19.93;7.90;;;;;;;25.40;50.97;101074.31;5113206;28;20209;-60
2021/07/29 01:47:47;;;;;;;18.37;8.20;;;;;;;25.46;51.27;101086.38;5111663;28;20166;-60
2021/07/29 01:50:12;;;;;;;17.83;7.30;;;;;;;25.46;51.01;101099.78;5112966;28;20723;-60
2021/07/29 01:52:38;;;;;;;12.17;6.60;;;;;;;25.54;52.81;101098.72;5112945;28;20170;-60
2021/07/29 01:55:05;;;;;;;15.43;8.17;;;;;;;25.56;51.07;101092.50;5112627;28;20178;-60
2021/07/29 01:57:31;;;;;;;19.17;9.30;;;;;;;25.53;54.94;101085.81;5112010;28;20178;-60
2021/07/29 01:59:56;;;;;;;14.03;8.27;;;;;;;25.50;55.06;101098.25;5112803;28;20177;-60
2021/07/29 02:02:22;;;;;;;20.93;9.67;;;;;;;25.47;55.81;101093.59;5113019;28;20269;-60
2021/07/29 02:04:48;;;;;;;19.00;9.47;;;;;;;25.42;56.09;101124.84;5112455;28;20551;-60
2021/07/29 02:07:13;;;;;;;17.27;9.50;;;;;;;25.26;56.85;101103.75;5111784;28;20257;-60
2021/07/29 02:09:39;;;;;;;19.60;8.90;;;;;;;25.16;56.23;101096.03;5112305;28;20620;-60
2021/07/29 02:12:05;;;;;;;17.97;9.60;;;;;;;25.06;57.06;101098.41;5112372;28;20239;-60
2021/07/29 02:14:31;;;;;;;19.60;10.47;;;;;;;25.03;57.34;101102.28;5112669;28;20171;-60
2021/07/29 02:16:57;;;;;;;16.97;10.10;;;;;;;24.95;57.63;101097.66;5111304;28;20189;-60
2021/07/29 02:19:22;;;;;;;23.03;9.97;;;;;;;24.86;57.77;101095.09;5112555;28;20667;-60
2021/07/29 02:21:47;;;;;;;15.93;9.43;;;;;;;24.81;57.77;101090.22;5112150;28;20175;-60
2021/07/29 02:24:13;;;;;;;14.37;9.40;;;;;;;24.69;57.98;101088.72;5112239;28;20239;-60
2021/07/29 02:26:39;;;;;;;15.73;9.40;;;;;;;24.57;58.08;101070.16;5111487;28;20177;-60
2021/07/29 02:29:04;;;;;;;16.03;9.00;;;;;;;23.77;57.84;100955.16;5111840;28;20211;-60
2021/07/29 02:31:30;;;;;;;19.77;9.90;;;;;;;24.51;57.85;101066.59;5112013;28;20173;-60
2021/07/29 02:33:55;;;;;;;17.63;8.50;;;;;;;24.38;56.64;101057.84;5111632;28;20208;-60
2021/07/29 02:36:21;;;;;;;13.07;6.70;;;;;;;24.29;55.24;101063.75;5111211;28;20172;-60
2021/07/29 02:38:46;;;;;;;13.70;7.50;;;;;;;23.62;56.26;100949.00;5093617;28;20651;-60
2021/07/29 02:41:12;;;;;;;11.37;8.30;;;;;;;24.45;56.56;101055.25;5112042;28;20173;-60
2021/07/29 02:43:37;;;;;;;16.93;7.80;;;;;;;24.46;56.56;101067.38;5111797;28;20228;-60
2021/07/29 02:46:02;;;;;;;12.30;7.90;;;;;;;24.46;56.71;101070.94;5110897;28;20694;-60
2021/07/29 02:48:28;;;;;;;12.20;7.80;;;;;;;24.36;56.81;101100.84;5112232;28;20201;-59
2021/07/29 02:50:54;;;;;;;18.10;9.20;;;;;;;24.21;57.96;101102.41;5111506;28;20205;-60
2021/07/29 02:53:21;;;;;;;19.00;9.50;;;;;;;24.11;58.02;101106.78;5111782;28;20595;-60
2021/07/29 02:55:47;;;;;;;13.87;8.63;;;;;;;24.13;57.92;101098.53;5111439;28;20182;-60
2021/07/29 02:58:13;;;;;;;16.77;9.20;;;;;;;23.52;58.12;101005.06;5111184;28;20384;-60
2021/07/29 03:00:38;;;;;;;15.47;9.13;;;;;;;24.05;58.42;101103.19;5111073;28;20253;-60
2021/07/29 03:03:04;;;;;;;21.93;10.33;;;;;;;24.03;58.55;101119.88;5111395;28;20759;-59
2021/07/29 03:05:29;;;;;;;16.23;9.80;;;;;;;23.69;58.84;101106.97;5111426;28;20186;-60
2021/07/29 03:07:54;;;;;;;15.40;9.77;;;;;;;23.77;59.81;101122.91;5110467;28;20175;-60
2021/07/29 03:10:20;;;;;;;16.93;9.30;;;;;;;23.66;59.62;101117.25;5111691;28;20170;-60
2021/07/29 03:12:45;;;;;;;15.13;9.17;;;;;;;23.57;60.04;101100.50;5111307;28;20647;-59
2021/07/29 03:15:11;;;;;;;17.13;10.10;;;;;;;23.68;60.05;101120.31;5111508;28;20166;-60
2021/07/29 03:17:37;;;;;;;18.43;10.07;;;;;;;23.64;60.07;101119.78;5110541;28;20170;-60
2021/07/29 03:20:03;;;;;;;24.90;10.90;;;;;;;23.64;60.01;101121.88;5111239;28;20184;-60
2021/07/29 03:22:29;;;;;;;20.23;10.57;;;;;;;23.00;60.44;101042.69;5111262;28;20557;-60
2021/07/29 03:24:55;;;;;;;16.87;10.03;;;;;;;23.59;60.44;101133.94;5110991;28;20192;-60
2021/07/29 03:27:21;;;;;;;19.30;10.23;;;;;;;23.32;60.64;101109.94;5110517;28;20611;-60
2021/07/29 03:29:46;;;;;;;18.20;9.23;;;;;;;23.56;60.42;101151.91;5111239;28;20163;-60
2021/07/29 03:32:11;;;;;;;19.80;9.57;;;;;;;23.54;60.39;101157.31;5111115;28;20529;-60
2021/07/29 03:34:37;;;;;;;19.47;9.77;;;;;;;23.45;60.28;101137.75;5111035;28;20174;-60
2021/07/29 03:37:03;;;;;;;21.70;10.47;;;;;;;23.55;60.60;101173.00;5110095;28;20186;-60
2021/07/29 03:39:28;;;;;;;27.27;10.23;;;;;;;23.52;60.07;101160.66;5111233;28;20567;-60
2021/07/29 03:41:55;;;;;;;26.73;10.70;;;;;;;23.34;60.19;101149.00;5110677;28;20250;-59
2021/07/29 03:44:20;;;;;;;18.40;9.70;;;;;;;23.15;59.75;101145.81;5111267;28;20194;-60
2021/07/29 03:46:46;;;;;;;16.30;9.77;;;;;;;22.54;60.65;101033.72;5110009;28;20663;-60
2021/07/29 03:49:11;;;;;;;19.20;9.63;;;;;;;23.37;60.30;101153.63;5111087;28;20243;-60
2021/07/29 03:51:37;;;;;;;19.60;9.30;;;;;;;23.43;60.55;101148.81;5110894;28;20162;-60
2021/07/29 03:54:02;;;;;;;19.23;9.43;;;;;;;23.45;60.01;101149.84;5110980;28;20186;-60
2021/07/29 03:56:28;;;;;;;19.63;9.27;;;;;;;23.44;59.78;101145.44;5110064;28;20181;-59
2021/07/29 03:58:53;;;;;;;20.73;10.23;;;;;;;23.48;59.49;101148.81;5110844;28;20174;-60
2021/07/29 04:01:19;;;;;;;16.70;8.93;;;;;;;23.53;60.50;101175.56;5111051;28;20262;-59
2021/07/29 04:03:46;;;;;;;19.53;9.80;;;;;;;23.52;60.18;101179.69;5110904;28;20190;-59
2021/07/29 04:06:16;;;;;;;16.07;9.23;;;;;;;23.56;60.21;101154.75;5109950;28;20185;-60
2021/07/29 04:08:41;;;;;;;15.83;8.73;;;;;;;23.66;59.95;101167.38;5110938;28;20235;-60
2021/07/29 04:11:06;;;;;;;17.90;9.97;;;;;;;23.71;59.60;101153.28;5111409;28;20253;-59
2021/07/29 04:13:32;;;;;;;15.60;9.43;;;;;;;23.64;59.65;101142.44;5114960;28;20163;-59
2021/07/29 04:15:59;;;;;;;24.40;10.23;;;;;;;23.80;59.14;101170.00;5113858;28;20174;-60
2021/07/29 04:18:24;;;;;;;24.53;11.07;;;;;;;23.85;59.45;101169.25;5112731;28;20185;-60
2021/07/29 04:20:50;;;;;;;18.00;9.87;;;;;;;23.93;59.44;101158.22;5104709;28;20175;-59
2021/07/29 04:23:15;;;;;;;24.73;11.03;;;;;;;23.98;59.21;101151.78;5101892;28;20274;-59
2021/07/29 04:25:41;;;;;;;19.50;10.43;;;;;;;24.03;58.55;101159.53;5114529;28;20193;-59
2021/07/29 04:28:06;;;;;;;18.77;10.50;;;;;;;24.04;58.30;101167.50;5113714;28;20186;-59
2021/07/29 04:30:32;;;;;;;19.47;10.60;;;;;;;24.11;58.49;101169.81;5114602;28;20177;-59
2021/07/29 04:32:57;;;;;;;17.50;9.70;;;;;;;24.18;58.70;101171.38;5114305;28;20251;-59
2021/07/29 04:35:22;;;;;;;24.07;10.60;;;;;;;24.24;58.46;101166.50;5114253;28;20688;-59
2021/07/29 04:37:48;;;;;;;20.73;11.10;;;;;;;24.16;58.86;101180.38;5111678;28;20174;-59
2021/07/29 04:40:13;;;;;;;20.77;10.57;;;;;;;24.18;58.31;101168.56;5113370;28;20179;-59
2021/07/29 04:42:39;;;;;;;23.53;10.60;;;;;;;24.30;58.39;101176.56;5114086;28;20218;-59
2021/07/29 04:45:05;;;;;;;23.83;10.83;;;;;;;24.39;57.79;101164.19;5114018;28;20640;-59
2021/07/29 04:47:31;;;;;;;19.70;10.00;;;;;;;24.45;57.74;101159.28;5113220;28;20177;-59
2021/07/29 04:49:56;;;;;;;20.57;10.43;;;;;;;24.54;57.15;101162.66;5114373;28;20182;-59
2021/07/29 04:52:22;;;;;;;17.67;10.10;;;;;;;24.61;57.19;101161.41;5113944;28;20169;-60
2021/07/29 04:54:47;;;;;;;18.50;11.23;;;;;;;24.68;56.48;101163.69;5113885;28;20174;-59
2021/07/29 04:57:13;;;;;;;20.77;11.03;;;;;;;24.75;56.21;101154.66;5095901;27;20218;-60
2021/07/29 04:59:41;;;;;;;24.27;10.77;;;;;;;24.83;56.24;101167.78;5106674;28;20198;-60
2021/07/29 05:02:07;;;;;;;17.93;11.13;;;;;;;24.87;56.47;101159.78;5112306;28;20209;-60
2021/07/29 05:04:33;;;;;;;22.67;11.37;;;;;;;24.83;55.87;101139.44;5113234;28;20178;-60
2021/07/29 05:06:58;;;;;;;20.40;11.00;;;;;;;24.64;55.84;101112.16;5110409;28;20206;-60
2021/07/29 05:09:24;;;;;;;19.63;11.17;;;;;;;25.11;56.19;101165.69;5112680;28;20590;-60
2021/07/29 05:11:49;;;;;;;17.47;11.23;;;;;;;25.15;56.17;101177.53;5112798;28;20182;-60
2021/07/29 05:14:15;;;;;;;21.43;11.43;;;;;;;25.17;56.14;101182.69;5112782;28;20178;-59
2021/07/29 05:16:40;;;;;;;19.50;11.03;;;;;;;25.27;56.67;101181.13;5110820;28;20182;-60
2021/07/29 05:19:06;;;;;;;20.30;11.70;;;;;;;25.34;57.22;101180.59;5111986;28;20174;-60
2021/07/29 05:21:31;;;;;;;25.07;12.67;;;;;;;25.44;57.25;101182.59;5111989;28;20182;-60
2021/07/29 05:23:57;;;;;;;24.07;11.90;;;;;;;25.50;57.38;101176.91;5112013;28;20194;-60
2021/07/29 05:26:23;;;;;;;25.87;12.23;;;;;;;25.42;57.37;101156.81;5109495;28;20194;-59
2021/07/29 05:28:49;;;;;;;23.43;13.27;;;;;;;25.72;57.65;101188.16;5111719;28;20537;-60
2021/07/29 05:31:14;;;;;;;20.83;12.60;;;;;;;25.83;57.30;101188.88;5112751;28;20708;-60
2021/07/29 05:33:40;;;;;;;25.30;12.43;;;;;;;25.93;57.32;101186.53;5112587;28;20593;-60
2021/07/29 05:36:06;;;;;;;22.63;12.97;;;;;;;26.04;57.40;101192.13;5110722;28;20201;-60
2021/07/29 05:38:33;;;;;;;22.50;12.53;;;;;;;26.11;56.71;101198.03;5111982;28;20226;-60
2021/07/29 05:41:04;;;;;;;22.93;12.97;;;;;;;26.24;56.93;101201.03;5112109;28;20170;-59
2021/07/29 05:43:29;;;;;;;24.77;13.13;;;;;;;25.77;56.83;101120.00;5112127;28;20612;-60
2021/07/29 05:45:55;;;;;;;21.40;13.23;;;;;;;26.44;57.04;101212.00;5110193;28;20187;-60
2021/07/29 05:48:20;;;;;;;25.97;13.87;;;;;;;26.32;58.11;101209.78;5111700;28;20275;-60
2021/07/29 05:50:46;;;;;;;21.87;12.50;;;;;;;26.37;57.43;101217.47;5111504;28;20174;-60
2021/07/29 05:53:12;;;;;;;17.53;12.10;;;;;;;26.47;57.46;101216.63;5112032;28;20281;-60
2021/07/29 05:55:37;;;;;;;23.20;12.83;;;;;;;26.56;56.54;101219.16;5111718;28;20253;-60
2021/07/29 05:58:03;;;;;;;24.27;12.30;;;;;;;26.63;55.96;101215.78;5110301;28;20667;-60
2021/07/29 06:00:28;;;;;;;21.73;11.70;;;;;;;26.74;55.38;101192.13;5111915;28;20178;-60
2021/07/29 06:02:54;;;;;;;21.57;11.43;;;;;;;26.89;53.91;101203.88;5111794;28;20624;-60
2021/07/29 06:05:19;;;;;;;21.60;10.83;;;;;;;26.94;52.97;101209.53;5111471;28;20201;-60
2021/07/29 06:07:45;;;;;;;20.60;9.97;;;;;;;26.37;51.50;101113.13;5109794;28;20553;-60
2021/07/29 06:10:11;;;;;;;19.40;9.57;;;;;;;26.97;51.57;101221.94;5111260;28;20297;-60
2021/07/29 06:12:36;;;;;;;18.73;9.40;;;;;;;26.57;50.96;101152.47;5111133;28;20223;-60
2021/07/29 06:15:03;;;;;;;22.67;9.37;;;;;;;27.14;50.81;101216.81;5105887;27;20209;-60
2021/07/29 06:17:31;;;;;;;20.90;9.27;;;;;;;27.15;51.15;101216.31;5110067;28;20295;-59
2021/07/29 06:20:04;;;;;;;24.10;9.90;;;;;;;27.33;51.50;101209.16;5111606;28;20178;-60
2021/07/29 06:22:29;;;;;;;18.00;8.57;;;;;;;27.52;50.53;101213.56;5111248;28;20570;-60
2021/07/29 06:24:55;;;;;;;21.67;8.90;;;;;;;27.53;49.28;101192.34;5096488;28;20178;-60
2021/07/29 06:27:21;;;;;;;15.60;8.63;;;;;;;27.84;48.73;101202.34;5106618;28;20556;-59
2021/07/29 06:29:46;;;;;;;17.40;8.85;;;;;;;27.97;48.37;101205.25;5110878;28;20204;-61
2021/07/29 06:32:12;;;;;;;16.88;8.15;;;;;;;28.09;47.15;101209.50;5110626;28;20170;-60
2021/07/29 06:34:37;;;;;;;19.25;8.80;;;;;;;28.14;47.76;101217.19;5110326;28;20226;-60
2021/07/29 06:37:03;;;;;;;17.85;8.73;;;;;;;28.13;46.80;101198.53;5109106;28;20224;-60
2021/07/29 06:39:29;;;;;;;17.45;8.65;;;;;;;28.21;47.28;101220.16;5111403;28;20253;-60
2021/07/29 06:41:54;;;;;;;19.13;8.63;;;;;;;28.35;46.52;101213.22;5110192;28;20226;-60
2021/07/29 06:44:19;;;;;;;21.65;8.65;;;;;;;28.49;47.19;101212.00;5111011;28;20678;-60
2021/07/29 06:46:45;;;;;;;19.23;8.18;;;;;;;28.56;48.17;101213.44;5108545;28;20556;-60
2021/07/29 06:49:10;;;;;;;21.70;8.75;;;;;;;28.55;46.49;101189.84;5092742;28;20227;-60
2021/07/29 06:51:37;;;;;;;16.50;7.80;;;;;;;28.62;46.12;101200.59;5111013;28;20256;-60
2021/07/29 06:54:06;;;;;;;20.75;8.05;;;;;;;27.95;45.76;101085.38;5109787;28;20171;-60
2021/07/29 06:56:33;;;;;;;15.00;7.75;;;;;;;28.95;44.93;101210.66;5108750;28;20178;-60
2021/07/29 06:58:59;;;;;;;13.93;7.80;;;;;;;28.47;44.88;101117.69;5110556;28;20171;-60
2021/07/29 07:01:25;;;;;;;13.23;7.43;;;;;;;28.84;43.84;101142.41;5110832;28;20178;-60
2021/07/29 07:03:51;;;;;;;17.98;7.68;;;;;;;29.31;43.50;101192.63;5109824;28;20194;-60
2021/07/29 07:06:16;;;;;;;16.00;7.65;;;;;;;28.70;42.84;101096.00;5109180;28;20271;-60
2021/07/29 07:08:42;;;;;;;17.50;7.95;;;;;;;29.07;42.92;101118.63;5110335;28;20216;-60
2021/07/29 07:11:14;;;;;;;14.60;7.75;;;;;;;29.58;42.64;101176.28;5110990;28;20174;-60
2021/07/29 07:13:40;;;;;;;15.05;7.35;;;;;;;29.79;42.48;101192.16;5110078;28;20639;-60
2021/07/29 07:16:09;;;;;;;16.55;7.47;;;;;;;29.87;42.66;101184.44;5108849;28;20201;-60
2021/07/29 07:18:34;;;;;;;17.52;7.30;;;;;;;29.98;41.68;101183.41;5110829;28;20174;-61
2021/07/29 07:21:07;;;;;;;17.17;7.20;;;;;;;29.96;40.39;101186.06;5110404;28;20311;-60
2021/07/29 07:23:34;;;;;;;15.00;7.20;;;;;;;30.10;40.87;101207.56;5110012;28;20225;-60
2021/07/29 07:26:00;;;;;;;19.45;7.40;;;;;;;30.20;41.02;101191.53;5109078;28;20186;-60
2021/07/29 07:28:26;;;;;;;13.77;7.38;;;;;;;30.25;40.83;101188.50;5109816;28;20166;-59
2021/07/29 07:30:52;;;;;;;15.25;7.20;;;;;;;29.79;41.95;101117.13;5092127;28;20178;-60
2021/07/29 07:33:17;;;;;;;14.85;7.35;;;;;;;30.28;41.29;101186.63;5110347;28;20255;-59
2021/07/29 07:35:43;;;;;;;17.73;6.90;;;;;;;29.98;41.65;101129.88;5109350;28;21094;-60
2021/07/29 07:38:08;;;;;;;13.88;7.57;;;;;;;30.40;41.72;101193.63;5109578;28;20603;-60
2021/07/29 07:40:35;;;;;;;14.93;7.32;;;;;;;30.39;41.11;101183.50;5110104;28;20198;-60
2021/07/29 07:43:01;;;;;;;14.82;7.43;;;;;;;30.58;41.23;101184.84;5109872;28;20376;-60
2021/07/29 07:45:27;;;;;;;13.23;7.57;;;;;;;30.67;40.43;101180.75;5109454;28;20253;-60
2021/07/29 07:47:53;;;;;;;14.48;7.18;;;;;;;30.58;41.09;101187.72;5115017;28;20231;-60
2021/07/29 07:50:18;;;;;;;14.10;7.63;;;;;;;30.47;40.85;101132.88;5116905;28;20182;-60
2021/07/29 07:52:44;;;;;;;11.73;7.68;;;;;;;30.54;41.93;101149.31;5116758;28;20206;-60
2021/07/29 07:55:09;;;;;;;18.08;7.50;;;;;;;30.65;42.21;101175.56;5116670;28;20182;-60
2021/07/29 07:57:35;;;;;;;16.05;8.00;;;;;;;30.73;42.61;101169.91;5115035;28;20178;-60
2021/07/29 08:00:00;;;;;;;15.65;7.05;;;;;;;30.87;40.08;101177.84;5117218;28;20256;-60
2021/07/29 08:02:26;;;;;;;14.63;6.78;;;;;;;31.07;40.22;101184.88;5116863;28;20223;-60
2021/07/29 08:04:52;;;;;;;21.13;7.03;;;;;;;31.03;39.27;101167.28;5116574;28;20655;-61
2021/07/29 08:07:18;;;;;;;13.63;6.55;;;;;;;30.74;40.46;101119.94;5114767;28;20667;-61
2021/07/29 08:09:43;;;;;;;13.48;6.55;;;;;;;31.14;40.02;101175.56;5115968;28;20205;-60
2021/07/29 08:12:09;;;;;;;12.32;6.38;;;;;;;31.17;38.94;101178.06;5116094;28;20553;-59
2021/07/29 08:14:38;;;;;;;15.50;6.57;;;;;;;30.71;39.76;101098.19;5117087;28;20678;-60
2021/07/29 08:17:05;;;;;;;13.30;6.40;;;;;;;31.39;39.95;101171.75;5113860;28;20212;-60
2021/07/29 08:19:31;;;;;;;10.43;6.60;;;;;;;31.44;39.68;101170.03;5116912;28;20169;-61
2021/07/29 08:21:57;;;;;;;15.15;6.82;;;;;;;31.58;38.81;101180.06;5115519;28;20186;-60
2021/07/29 08:24:23;;;;;;;14.88;6.45;;;;;;;31.70;37.59;101167.69;5116841;28;20581;-60
2021/07/29 08:26:48;;;;;;;17.58;6.60;;;;;;;31.83;38.25;101173.31;5113811;28;20776;-60
2021/07/29 08:29:14;;;;;;;12.25;6.47;;;;;;;31.38;37.38;101092.88;5117026;28;20643;-60
2021/07/29 08:31:39;;;;;;;10.60;6.25;;;;;;;31.95;38.42;101170.88;5116378;28;20252;-61
2021/07/29 08:34:05;;;;;;;10.93;6.43;;;;;;;31.98;39.03;101161.13;5116615;28;20182;-60
2021/07/29 08:36:30;;;;;;;11.88;6.60;;;;;;;32.09;37.33;101152.91;5114208;28;20659;-61
2021/07/29 08:38:56;;;;;;;15.85;6.53;;;;;;;32.21;36.81;101162.72;5114995;28;20258;-61
2021/07/29 08:41:21;;;;;;;11.32;5.85;;;;;;;32.18;35.21;101155.25;5115221;28;20196;-61
2021/07/29 08:43:47;;;;;;;13.70;6.18;;;;;;;32.22;35.66;101152.00;5114864;27;20225;-61
2021/07/29 08:46:18;;;;;;;12.07;6.13;;;;;;;31.51;36.45;101060.44;5114011;28;20189;-60
2021/07/29 08:48:46;;;;;;;11.10;5.82;;;;;;;32.12;36.30;101151.00;5114743;28;20166;-60
2021/07/29 08:51:17;;;;;;;14.18;5.90;;;;;;;32.14;36.80;101140.50;5116123;28;20251;-61
2021/07/29 08:53:43;;;;;;;13.25;5.72;;;;;;;32.43;37.80;101153.41;5115941;28;20158;-61
2021/07/29 08:56:12;;;;;;;10.32;5.15;;;;;;;32.69;37.01;101155.88;5114790;28;20190;-60
2021/07/29 08:58:38;;;;;;;17.88;5.32;;;;;;;32.83;35.18;101140.03;5112165;28;20228;-60
2021/07/29 09:01:12;;;;;;;9.77;5.63;;;;;;;32.83;33.93;101111.31;5112900;28;20194;-60
2021/07/29 09:03:38;;;;;;;12.38;5.28;;;;;;;33.05;33.70;101124.84;5113019;28;20201;-61
2021/07/29 09:06:12;;;;;;;14.35;5.70;;;;;;;32.65;34.74;101057.19;5110916;28;20198;-61
2021/07/29 09:08:48;;;;;;;10.85;5.53;;;;;;;33.30;33.25;101122.91;5112024;28;20190;-60
2021/07/29 09:11:37;;;;;;;13.05;5.43;;;;;;;32.94;34.07;101058.47;5113238;28;20177;-61
2021/07/29 09:14:24;;;;;;;16.58;5.40;;;;;;;33.60;33.32;101110.50;5112796;28;20223;-61
2021/07/29 09:16:53;;;;;;;12.93;5.43;;;;;;;33.71;32.69;101112.94;5110894;28;20221;-60
2021/07/29 09:19:33;;;;;;;14.95;6.20;;;;;;;33.83;33.64;101111.22;5112200;28;20281;-61
2021/07/29 09:22:12;;;;;;;14.70;5.90;;;;;;;33.90;33.14;101105.41;5112430;28;20260;-61
2021/07/29 09:24:56;;;;;;;13.25;5.40;;;;;;;34.03;32.76;101119.50;5113067;28;20178;-61
2021/07/29 09:27:23;;;;;;;10.75;5.82;;;;;;;33.94;30.71;101105.75;5111043;28;20773;-61
2021/07/29 09:29:48;;;;;;;17.05;5.93;;;;;;;34.00;32.22;101111.28;5111698;28;20189;-61
2021/07/29 09:32:16;;;;;;;16.90;5.93;;;;;;;34.18;32.98;101110.75;5112797;28;20174;-61
2021/07/29 09:34:47;;;;;;;13.30;5.70;;;;;;;34.25;30.91;101103.44;5112814;28;20178;-60
2021/07/29 09:37:13;;;;;;;13.30;5.70;;;;;;;34.53;31.18;101098.03;5110680;28;20182;-60
2021/07/29 09:39:39;;;;;;;18.73;5.70;;;;;;;34.76;32.14;101092.84;5112434;28;20180;-61
2021/07/29 09:42:19;;;;;;;14.60;5.35;;;;;;;34.91;31.12;101097.72;5111488;28;20292;-61
2021/07/29 09:44:46;;;;;;;17.27;5.78;;;;;;;35.10;30.36;101101.53;5112738;28;20508;-60
2021/07/29 09:47:12;;;;;;;14.20;5.78;;;;;;;34.84;30.79;101041.72;5110448;28;20182;-60
2021/07/29 09:49:38;;;;;;;11.63;5.53;;;;;;;35.14;30.33;101078.81;5112271;28;20239;-61
2021/07/29 09:52:05;;;;;;;16.70;6.28;;;;;;;35.39;29.51;101104.66;5111487;28;20177;-61
2021/07/29 09:54:30;;;;;;;16.75;5.95;;;;;;;35.61;29.32;101087.06;5112266;28;20212;-60
2021/07/29 09:56:56;;;;;;;14.93;5.47;;;;;;;35.53;30.52;101074.13;5110060;28;20259;-62
2021/07/29 09:59:22;;;;;;;13.98;5.93;;;;;;;35.72;30.68;101086.56;5112258;28;20174;-61
2021/07/29 10:01:50;;;;;;;12.13;5.50;;;;;;;35.77;30.25;101081.91;5111075;28;20307;-61
2021/07/29 10:04:17;;;;;;;16.10;6.18;;;;;;;35.89;30.38;101086.50;5112154;28;20213;-61
2021/07/29 10:06:47;;;;;;;14.98;6.15;;;;;;;35.91;29.60;101088.78;5109938;28;20503;-61
2021/07/29 10:09:14;;;;;;;18.52;6.22;;;;;;;36.06;29.20;101074.13;5111530;28;20231;-61
2021/07/29 10:11:44;;;;;;;14.98;6.07;;;;;;;36.17;30.90;101080.09;5111307;28;20663;-61
2021/07/29 10:14:10;;;;;;;15.40;6.20;;;;;;;36.32;30.35;101082.00;5111694;28;20648;-61
2021/07/29 10:16:47;;;;;;;13.88;5.60;;;;;;;36.54;28.88;101072.94;5110066;28;20178;-61
2021/07/29 10:19:13;;;;;;;15.63;5.97;;;;;;;36.84;29.41;101065.88;5111369;28;20174;-62
2021/07/29 10:21:40;;;;;;;12.18;6.05;;;;;;;36.26;28.34;100966.09;5111501;28;20181;-61
2021/07/29 10:24:08;;;;;;;15.63;5.72;;;;;;;37.13;28.57;101063.78;5110792;28;20198;-61
2021/07/29 10:26:55;;;;;;;18.65;6.93;;;;;;;36.80;28.02;101022.28;5109818;28;20186;-61
2021/07/29 10:29:24;;;;;;;14.60;6.07;;;;;;;37.29;26.73;101065.00;5111380;28;20208;-60
2021/07/29 10:31:55;;;;;;;17.17;6.60;;;;;;;37.18;28.11;101063.50;5111570;28;20170;-61
2021/07/29 10:34:28;;;;;;;17.02;6.57;;;;;;;37.42;26.68;101050.06;5092496;28;20545;-61
2021/07/29 10:36:55;;;;;;;15.25;5.85;;;;;;;37.55;26.88;101049.59;5109405;28;20178;-61
2021/07/29 10:39:20;;;;;;;16.50;6.50;;;;;;;37.68;27.48;101049.88;5111615;28;20397;-61
2021/07/29 10:41:55;;;;;;;12.23;6.15;;;;;;;37.64;26.60;100996.78;5110350;28;20202;-61
2021/07/29 10:44:36;;;;;;;17.70;6.45;;;;;;;38.13;26.26;101031.44;5110370;28;20168;-62
2021/07/29 10:47:06;;;;;;;20.48;6.28;;;;;;;38.34;26.30;101034.38;5108865;28;20186;-61
2021/07/29 10:49:44;;;;;;;15.27;6.43;;;;;;;38.43;25.94;101030.69;5109309;28;20698;-60
2021/07/29 10:52:10;;;;;;;16.27;6.25;;;;;;;38.33;26.79;101040.81;5109295;28;20178;-61
2021/07/29 10:54:37;;;;;;;14.35;6.25;;;;;;;38.39;26.19;101038.31;5110035;28;20178;-61
2021/07/29 10:57:04;;;;;;;16.02;6.22;;;;;;;38.54;26.44;101037.97;5108730;28;20223;-60
2021/07/29 10:59:32;;;;;;;14.85;6.20;;;;;;;38.44;26.00;101011.19;5110734;28;20194;-61
2021/07/29 11:01:59;;;;;;;13.50;6.10;;;;;;;38.04;26.11;100942.53;5110485;28;20481;-61
2021/07/29 11:04:28;;;;;;;19.77;6.50;;;;;;;38.44;25.96;101006.16;5110176;28;20267;-61
2021/07/29 11:07:02;;;;;;;16.38;6.05;;;;;;;38.05;26.63;100983.81;5108421;28;20185;-61
2021/07/29 11:09:33;;;;;;;16.13;6.05;;;;;;;38.63;26.68;101019.72;5110781;28;20170;-61
2021/07/29 11:11:59;;;;;;;14.77;5.85;;;;;;;38.83;26.65;101016.09;5110329;28;20227;-61
2021/07/29 11:14:34;;;;;;;15.50;6.30;;;;;;;39.27;25.47;101011.72;5110314;28;20182;-61
2021/07/29 11:17:02;;;;;;;12.10;5.80;;;;;;;39.61;25.35;101014.00;5108496;28;20246;-61